sensor_id;sensor_type;location;lat;lon;timestamp;temperature;humidity
12426;DHT22;6277;49.824;9.562;2023-04-10T00:01:33;7.00;55.30
12426;DHT22;6277;49.824;9.562;2023-04-10T00:04:01;6.90;55.30
12426;DHT22;6277;49.824;9.562;2023-04-10T00:06:27;6.90;55.30
12426;DHT22;6277;49.824;9.562;2023-04-10T00:08:53;6.90;55.30
12426;DHT22;6277;49.824;9.562;2023-04-10T00:11:18;6.90;56.00
12426;DHT22;6277;49.824;9.562;2023-04-10T00:13:44;6.80;55.50
12426;DHT22;6277;49.824;9.562;2023-04-10T00:16:10;6.80;55.60
12426;DHT22;6277;49.824;9.562;2023-04-10T00:18:35;6.80;55.60
12426;DHT22;6277;49.824;9.562;2023-04-10T00:21:02;6.80;55.70
12426;DHT22;6277;49.824;9.562;2023-04-10T00:23:28;6.80;55.70
12426;DHT22;6277;49.824;9.562;2023-04-10T00:25:56;6.90;55.70
12426;DHT22;6277;49.824;9.562;2023-04-10T00:28:21;6.70;55.60
12426;DHT22;6277;49.824;9.562;2023-04-10T00:30:47;6.70;55.60
12426;DHT22;6277;49.824;9.562;2023-04-10T00:33:13;6.70;55.70
12426;DHT22;6277;49.824;9.562;2023-04-10T00:35:38;6.60;55.60
12426;DHT22;6277;49.824;9.562;2023-04-10T00:38:04;6.60;55.70
12426;DHT22;6277;49.824;9.562;2023-04-10T00:40:29;6.50;55.80
12426;DHT22;6277;49.824;9.562;2023-04-10T00:42:55;6.50;55.80
12426;DHT22;6277;49.824;9.562;2023-04-10T00:45:21;6.50;55.80
12426;DHT22;6277;49.824;9.562;2023-04-10T00:47:47;6.50;55.80
12426;DHT22;6277;49.824;9.562;2023-04-10T00:50:13;6.40;55.80
12426;DHT22;6277;49.824;9.562;2023-04-10T00:52:38;6.40;55.80
12426;DHT22;6277;49.824;9.562;2023-04-10T00:55:04;6.30;55.80
12426;DHT22;6277;49.824;9.562;2023-04-10T00:57:31;6.30;55.90
12426;DHT22;6277;49.824;9.562;2023-04-10T00:59:57;6.20;56.00
12426;DHT22;6277;49.824;9.562;2023-04-10T01:02:23;6.20;56.10
12426;DHT22;6277;49.824;9.562;2023-04-10T01:04:48;6.20;56.20
12426;DHT22;6277;49.824;9.562;2023-04-10T01:07:34;6.10;56.20
12426;DHT22;6277;49.824;9.562;2023-04-10T01:15:14;6.10;57.20
12426;DHT22;6277;49.824;9.562;2023-04-10T01:20:28;6.10;57.00
12426;DHT22;6277;49.824;9.562;2023-04-10T01:25:59;6.00;57.30
12426;DHT22;6277;49.824;9.562;2023-04-10T01:28:59;6.00;57.50
12426;DHT22;6277;49.824;9.562;2023-04-10T01:34:07;6.00;57.20
12426;DHT22;6277;49.824;9.562;2023-04-10T01:36:37;6.00;57.20
12426;DHT22;6277;49.824;9.562;2023-04-10T01:39:04;6.00;57.30
12426;DHT22;6277;49.824;9.562;2023-04-10T01:41:32;6.10;57.20
12426;DHT22;6277;49.824;9.562;2023-04-10T01:43:59;6.10;57.30
12426;DHT22;6277;49.824;9.562;2023-04-10T01:46:28;6.10;57.20
12426;DHT22;6277;49.824;9.562;2023-04-10T01:48:55;6.10;57.20
12426;DHT22;6277;49.824;9.562;2023-04-10T01:51:21;6.20;57.10
12426;DHT22;6277;49.824;9.562;2023-04-10T01:53:47;6.20;57.10
12426;DHT22;6277;49.824;9.562;2023-04-10T01:56:14;6.20;57.70
12426;DHT22;6277;49.824;9.562;2023-04-10T01:58:40;6.20;57.20
12426;DHT22;6277;49.824;9.562;2023-04-10T02:01:06;6.20;57.20
12426;DHT22;6277;49.824;9.562;2023-04-10T02:03:32;6.30;57.20
12426;DHT22;6277;49.824;9.562;2023-04-10T02:06:17;6.20;57.20
12426;DHT22;6277;49.824;9.562;2023-04-10T02:08:54;6.20;57.80
12426;DHT22;6277;49.824;9.562;2023-04-10T02:11:35;6.20;57.40
12426;DHT22;6277;49.824;9.562;2023-04-10T02:14:04;6.20;57.40
12426;DHT22;6277;49.824;9.562;2023-04-10T02:16:32;6.20;57.20
12426;DHT22;6277;49.824;9.562;2023-04-10T02:19:00;6.10;57.10
12426;DHT22;6277;49.824;9.562;2023-04-10T02:21:26;6.10;57.00
12426;DHT22;6277;49.824;9.562;2023-04-10T02:23:55;6.10;57.10
12426;DHT22;6277;49.824;9.562;2023-04-10T02:26:20;6.00;57.10
12426;DHT22;6277;49.824;9.562;2023-04-10T02:28:46;6.00;57.10
12426;DHT22;6277;49.824;9.562;2023-04-10T02:31:12;6.00;57.10
12426;DHT22;6277;49.824;9.562;2023-04-10T02:33:37;5.90;57.00
12426;DHT22;6277;49.824;9.562;2023-04-10T02:36:03;5.90;57.10
12426;DHT22;6277;49.824;9.562;2023-04-10T02:38:28;5.80;57.10
12426;DHT22;6277;49.824;9.562;2023-04-10T02:40:54;5.80;57.20
12426;DHT22;6277;49.824;9.562;2023-04-10T02:43:19;5.70;57.30
12426;DHT22;6277;49.824;9.562;2023-04-10T02:45:45;5.70;57.30
12426;DHT22;6277;49.824;9.562;2023-04-10T02:48:11;5.60;57.40
12426;DHT22;6277;49.824;9.562;2023-04-10T02:50:37;5.60;57.40
12426;DHT22;6277;49.824;9.562;2023-04-10T02:53:02;5.60;57.50
12426;DHT22;6277;49.824;9.562;2023-04-10T02:55:28;5.50;57.50
12426;DHT22;6277;49.824;9.562;2023-04-10T02:57:53;5.50;57.60
12426;DHT22;6277;49.824;9.562;2023-04-10T03:00:20;5.50;57.70
12426;DHT22;6277;49.824;9.562;2023-04-10T03:02:45;5.50;57.70
12426;DHT22;6277;49.824;9.562;2023-04-10T03:05:11;5.50;57.80
12426;DHT22;6277;49.824;9.562;2023-04-10T03:07:36;5.50;57.90
12426;DHT22;6277;49.824;9.562;2023-04-10T03:10:02;5.50;58.00
12426;DHT22;6277;49.824;9.562;2023-04-10T03:12:28;5.50;58.00
12426;DHT22;6277;49.824;9.562;2023-04-10T03:14:53;5.50;58.10
12426;DHT22;6277;49.824;9.562;2023-04-10T03:17:19;5.50;58.10
12426;DHT22;6277;49.824;9.562;2023-04-10T03:19:44;5.50;58.10
12426;DHT22;6277;49.824;9.562;2023-04-10T03:22:10;5.50;58.10
12426;DHT22;6277;49.824;9.562;2023-04-10T03:24:36;5.50;58.20
12426;DHT22;6277;49.824;9.562;2023-04-10T03:27:02;5.50;58.10
12426;DHT22;6277;49.824;9.562;2023-04-10T03:29:28;5.50;58.10
12426;DHT22;6277;49.824;9.562;2023-04-10T03:31:53;5.50;58.20
12426;DHT22;6277;49.824;9.562;2023-04-10T03:34:19;5.50;58.10
12426;DHT22;6277;49.824;9.562;2023-04-10T03:36:44;5.40;58.10
12426;DHT22;6277;49.824;9.562;2023-04-10T03:39:10;5.40;57.90
12426;DHT22;6277;49.824;9.562;2023-04-10T03:41:36;5.40;58.00
12426;DHT22;6277;49.824;9.562;2023-04-10T03:44:02;5.40;58.10
12426;DHT22;6277;49.824;9.562;2023-04-10T03:46:28;5.40;58.10
12426;DHT22;6277;49.824;9.562;2023-04-10T03:48:53;5.30;58.10
12426;DHT22;6277;49.824;9.562;2023-04-10T03:51:19;5.30;58.10
12426;DHT22;6277;49.824;9.562;2023-04-10T03:53:45;5.30;58.20
12426;DHT22;6277;49.824;9.562;2023-04-10T03:56:11;5.30;58.30
12426;DHT22;6277;49.824;9.562;2023-04-10T03:58:36;5.30;58.40
12426;DHT22;6277;49.824;9.562;2023-04-10T04:01:03;5.30;58.40
12426;DHT22;6277;49.824;9.562;2023-04-10T04:03:29;5.30;58.50
12426;DHT22;6277;49.824;9.562;2023-04-10T04:05:55;5.30;58.60
12426;DHT22;6277;49.824;9.562;2023-04-10T04:08:20;5.40;58.70
12426;DHT22;6277;49.824;9.562;2023-04-10T04:10:46;5.40;58.70
12426;DHT22;6277;49.824;9.562;2023-04-10T04:13:11;5.40;58.90
12426;DHT22;6277;49.824;9.562;2023-04-10T04:15:37;5.40;58.70
12426;DHT22;6277;49.824;9.562;2023-04-10T04:18:03;5.40;58.80
12426;DHT22;6277;49.824;9.562;2023-04-10T04:20:28;5.50;59.40
12426;DHT22;6277;49.824;9.562;2023-04-10T04:22:54;5.50;59.00
12426;DHT22;6277;49.824;9.562;2023-04-10T04:25:19;5.50;59.00
12426;DHT22;6277;49.824;9.562;2023-04-10T04:27:45;5.60;59.00
12426;DHT22;6277;49.824;9.562;2023-04-10T04:30:11;5.60;59.10
12426;DHT22;6277;49.824;9.562;2023-04-10T04:32:36;5.60;59.00
12426;DHT22;6277;49.824;9.562;2023-04-10T04:35:02;5.60;59.00
12426;DHT22;6277;49.824;9.562;2023-04-10T04:37:27;5.70;59.10
12426;DHT22;6277;49.824;9.562;2023-04-10T04:39:53;5.70;59.00
12426;DHT22;6277;49.824;9.562;2023-04-10T04:42:18;5.70;59.00
12426;DHT22;6277;49.824;9.562;2023-04-10T04:44:44;5.70;59.00
12426;DHT22;6277;49.824;9.562;2023-04-10T04:47:09;5.70;59.00
12426;DHT22;6277;49.824;9.562;2023-04-10T04:49:35;5.70;59.00
12426;DHT22;6277;49.824;9.562;2023-04-10T04:52:01;5.70;59.00
12426;DHT22;6277;49.824;9.562;2023-04-10T04:54:27;5.70;59.00
12426;DHT22;6277;49.824;9.562;2023-04-10T04:56:52;5.70;59.00
12426;DHT22;6277;49.824;9.562;2023-04-10T04:59:18;5.70;58.90
12426;DHT22;6277;49.824;9.562;2023-04-10T05:01:43;5.70;59.00
12426;DHT22;6277;49.824;9.562;2023-04-10T05:04:09;5.70;59.10
12426;DHT22;6277;49.824;9.562;2023-04-10T05:06:34;5.70;59.20
12426;DHT22;6277;49.824;9.562;2023-04-10T05:09:00;5.70;59.30
12426;DHT22;6277;49.824;9.562;2023-04-10T05:11:25;5.80;59.40
12426;DHT22;6277;49.824;9.562;2023-04-10T05:13:51;5.80;59.40
12426;DHT22;6277;49.824;9.562;2023-04-10T05:16:16;5.80;59.50
12426;DHT22;6277;49.824;9.562;2023-04-10T05:18:42;5.90;59.60
12426;DHT22;6277;49.824;9.562;2023-04-10T05:21:07;6.00;59.70
12426;DHT22;6277;49.824;9.562;2023-04-10T05:23:33;6.00;59.70
12426;DHT22;6277;49.824;9.562;2023-04-10T05:25:58;6.10;59.80
12426;DHT22;6277;49.824;9.562;2023-04-10T05:28:24;6.10;59.80
12426;DHT22;6277;49.824;9.562;2023-04-10T05:30:50;6.20;59.80
12426;DHT22;6277;49.824;9.562;2023-04-10T05:33:15;6.30;59.90
12426;DHT22;6277;49.824;9.562;2023-04-10T05:35:41;6.40;59.90
12426;DHT22;6277;49.824;9.562;2023-04-10T05:38:06;6.40;60.60
12426;DHT22;6277;49.824;9.562;2023-04-10T05:40:32;6.50;60.00
12426;DHT22;6277;49.824;9.562;2023-04-10T05:42:57;6.60;60.00
12426;DHT22;6277;49.824;9.562;2023-04-10T05:45:23;6.60;59.90
12426;DHT22;6277;49.824;9.562;2023-04-10T05:47:48;6.70;60.00
12426;DHT22;6277;49.824;9.562;2023-04-10T05:50:14;6.80;60.00
12426;DHT22;6277;49.824;9.562;2023-04-10T05:52:39;6.90;60.00
12426;DHT22;6277;49.824;9.562;2023-04-10T05:55:05;6.90;60.00
12426;DHT22;6277;49.824;9.562;2023-04-10T05:57:31;7.00;60.00
12426;DHT22;6277;49.824;9.562;2023-04-10T05:59:57;7.00;60.00
12426;DHT22;6277;49.824;9.562;2023-04-10T06:02:22;7.10;60.10
12426;DHT22;6277;49.824;9.562;2023-04-10T06:04:48;7.20;60.10
12426;DHT22;6277;49.824;9.562;2023-04-10T06:07:15;7.30;60.20
12426;DHT22;6277;49.824;9.562;2023-04-10T06:09:41;7.40;60.30
12426;DHT22;6277;49.824;9.562;2023-04-10T06:12:06;7.40;60.30
12426;DHT22;6277;49.824;9.562;2023-04-10T06:14:32;7.50;60.30
12426;DHT22;6277;49.824;9.562;2023-04-10T06:16:57;7.60;60.40
12426;DHT22;6277;49.824;9.562;2023-04-10T06:19:23;7.70;60.30
12426;DHT22;6277;49.824;9.562;2023-04-10T06:21:48;7.80;60.30
12426;DHT22;6277;49.824;9.562;2023-04-10T06:24:14;8.00;60.40
12426;DHT22;6277;49.824;9.562;2023-04-10T06:26:40;8.00;60.40
12426;DHT22;6277;49.824;9.562;2023-04-10T06:29:05;8.20;60.40
12426;DHT22;6277;49.824;9.562;2023-04-10T06:31:34;8.30;60.40
12426;DHT22;6277;49.824;9.562;2023-04-10T06:34:00;8.30;60.50
12426;DHT22;6277;49.824;9.562;2023-04-10T06:36:25;8.50;60.40
12426;DHT22;6277;49.824;9.562;2023-04-10T06:38:51;8.60;60.50
12426;DHT22;6277;49.824;9.562;2023-04-10T06:41:17;8.70;60.40
12426;DHT22;6277;49.824;9.562;2023-04-10T06:43:43;8.80;60.40
12426;DHT22;6277;49.824;9.562;2023-04-10T06:46:10;8.90;60.40
12426;DHT22;6277;49.824;9.562;2023-04-10T06:48:35;9.00;60.30
12426;DHT22;6277;49.824;9.562;2023-04-10T06:51:01;9.10;60.30
12426;DHT22;6277;49.824;9.562;2023-04-10T06:53:27;9.20;60.20
12426;DHT22;6277;49.824;9.562;2023-04-10T06:55:52;9.40;60.10
12426;DHT22;6277;49.824;9.562;2023-04-10T06:58:18;9.40;60.00
12426;DHT22;6277;49.824;9.562;2023-04-10T07:00:44;9.50;60.00
12426;DHT22;6277;49.824;9.562;2023-04-10T07:03:09;9.60;60.60
12426;DHT22;6277;49.824;9.562;2023-04-10T07:05:35;9.70;59.90
12426;DHT22;6277;49.824;9.562;2023-04-10T07:08:00;9.80;59.90
12426;DHT22;6277;49.824;9.562;2023-04-10T07:10:26;9.90;59.90
12426;DHT22;6277;49.824;9.562;2023-04-10T07:12:51;10.00;59.80
12426;DHT22;6277;49.824;9.562;2023-04-10T07:15:17;10.10;59.80
12426;DHT22;6277;49.824;9.562;2023-04-10T07:17:42;10.20;59.70
12426;DHT22;6277;49.824;9.562;2023-04-10T07:20:08;10.30;59.70
12426;DHT22;6277;49.824;9.562;2023-04-10T07:22:34;10.40;59.70
12426;DHT22;6277;49.824;9.562;2023-04-10T07:24:59;10.50;59.70
12426;DHT22;6277;49.824;9.562;2023-04-10T07:27:25;10.60;59.70
12426;DHT22;6277;49.824;9.562;2023-04-10T07:29:53;10.70;59.60
12426;DHT22;6277;49.824;9.562;2023-04-10T07:32:19;10.80;59.60
12426;DHT22;6277;49.824;9.562;2023-04-10T07:34:45;10.90;59.50
12426;DHT22;6277;49.824;9.562;2023-04-10T07:37:10;11.00;59.40
12426;DHT22;6277;49.824;9.562;2023-04-10T07:39:36;11.10;59.30
12426;DHT22;6277;49.824;9.562;2023-04-10T07:42:01;11.20;59.20
12426;DHT22;6277;49.824;9.562;2023-04-10T07:44:27;11.20;59.10
12426;DHT22;6277;49.824;9.562;2023-04-10T07:46:53;11.30;59.00
12426;DHT22;6277;49.824;9.562;2023-04-10T07:49:18;11.30;58.90
12426;DHT22;6277;49.824;9.562;2023-04-10T07:51:44;11.30;58.90
12426;DHT22;6277;49.824;9.562;2023-04-10T07:54:09;11.40;58.90
12426;DHT22;6277;49.824;9.562;2023-04-10T07:56:35;11.40;58.90
12426;DHT22;6277;49.824;9.562;2023-04-10T07:59:01;11.50;58.90
12426;DHT22;6277;49.824;9.562;2023-04-10T08:01:27;11.50;58.90
12426;DHT22;6277;49.824;9.562;2023-04-10T08:03:53;11.60;58.90
12426;DHT22;6277;49.824;9.562;2023-04-10T08:06:20;11.60;59.40
12426;DHT22;6277;49.824;9.562;2023-04-10T08:08:45;11.70;58.90
12426;DHT22;6277;49.824;9.562;2023-04-10T08:11:31;11.70;58.90
12426;DHT22;6277;49.824;9.562;2023-04-10T08:13:59;11.80;58.90
12426;DHT22;6277;49.824;9.562;2023-04-10T08:16:32;11.90;59.00
12426;DHT22;6277;49.824;9.562;2023-04-10T08:18:59;11.90;58.90
12426;DHT22;6277;49.824;9.562;2023-04-10T08:21:26;12.00;59.00
12426;DHT22;6277;49.824;9.562;2023-04-10T08:23:53;12.10;59.00
12426;DHT22;6277;49.824;9.562;2023-04-10T08:26:19;12.20;59.00
12426;DHT22;6277;49.824;9.562;2023-04-10T08:28:49;12.30;58.90
12426;DHT22;6277;49.824;9.562;2023-04-10T08:31:19;12.40;58.90
12426;DHT22;6277;49.824;9.562;2023-04-10T08:33:45;12.50;58.90
12426;DHT22;6277;49.824;9.562;2023-04-10T08:36:11;12.60;58.80
12426;DHT22;6277;49.824;9.562;2023-04-10T08:38:43;12.70;58.80
12426;DHT22;6277;49.824;9.562;2023-04-10T08:41:10;12.80;58.70
12426;DHT22;6277;49.824;9.562;2023-04-10T08:43:36;12.90;58.60
12426;DHT22;6277;49.824;9.562;2023-04-10T08:46:02;13.00;58.60
12426;DHT22;6277;49.824;9.562;2023-04-10T08:51:03;13.20;58.70
12426;DHT22;6277;49.824;9.562;2023-04-10T08:53:30;13.30;58.60
12426;DHT22;6277;49.824;9.562;2023-04-10T08:55:56;13.40;58.60
12426;DHT22;6277;49.824;9.562;2023-04-10T08:58:23;13.50;58.60
12426;DHT22;6277;49.824;9.562;2023-04-10T09:00:50;13.60;58.30
12426;DHT22;6277;49.824;9.562;2023-04-10T09:03:16;13.70;58.30
12426;DHT22;6277;49.824;9.562;2023-04-10T09:05:42;13.70;58.20
12426;DHT22;6277;49.824;9.562;2023-04-10T09:08:07;13.80;58.10
12426;DHT22;6277;49.824;9.562;2023-04-10T09:10:34;13.90;58.20
12426;DHT22;6277;49.824;9.562;2023-04-10T09:12:59;14.00;58.10
12426;DHT22;6277;49.824;9.562;2023-04-10T09:15:25;14.10;58.20
12426;DHT22;6277;49.824;9.562;2023-04-10T09:18:08;14.10;58.20
12426;DHT22;6277;49.824;9.562;2023-04-10T09:20:34;14.20;58.10
12426;DHT22;6277;49.824;9.562;2023-04-10T09:23:00;14.30;58.20
12426;DHT22;6277;49.824;9.562;2023-04-10T09:25:35;14.40;58.10
12426;DHT22;6277;49.824;9.562;2023-04-10T09:28:06;14.50;57.90
12426;DHT22;6277;49.824;9.562;2023-04-10T09:30:36;14.60;57.80
12426;DHT22;6277;49.824;9.562;2023-04-10T09:33:02;14.70;57.80
12426;DHT22;6277;49.824;9.562;2023-04-10T09:35:36;14.80;57.80
12426;DHT22;6277;49.824;9.562;2023-04-10T09:38:21;14.90;57.60
12426;DHT22;6277;49.824;9.562;2023-04-10T09:40:47;15.00;57.40
12426;DHT22;6277;49.824;9.562;2023-04-10T09:45:54;15.10;57.30
12426;DHT22;6277;49.824;9.562;2023-04-10T09:48:21;15.20;57.30
12426;DHT22;6277;49.824;9.562;2023-04-10T09:50:47;15.30;57.30
12426;DHT22;6277;49.824;9.562;2023-04-10T09:53:15;15.40;57.10
12426;DHT22;6277;49.824;9.562;2023-04-10T09:55:42;15.50;56.90
12426;DHT22;6277;49.824;9.562;2023-04-10T09:58:09;15.50;56.60
12426;DHT22;6277;49.824;9.562;2023-04-10T10:00:39;15.60;56.70
12426;DHT22;6277;49.824;9.562;2023-04-10T10:03:08;15.70;56.60
12426;DHT22;6277;49.824;9.562;2023-04-10T10:05:38;15.80;56.50
12426;DHT22;6277;49.824;9.562;2023-04-10T10:08:05;15.90;56.30
12426;DHT22;6277;49.824;9.562;2023-04-10T10:10:31;16.00;57.10
12426;DHT22;6277;49.824;9.562;2023-04-10T10:13:00;16.10;56.60
12426;DHT22;6277;49.824;9.562;2023-04-10T10:15:41;16.20;56.80
12426;DHT22;6277;49.824;9.562;2023-04-10T10:18:21;16.30;55.70
12426;DHT22;6277;49.824;9.562;2023-04-10T10:20:50;16.40;56.00
12426;DHT22;6277;49.824;9.562;2023-04-10T10:23:16;16.50;56.10
12426;DHT22;6277;49.824;9.562;2023-04-10T10:25:44;16.60;56.00
12426;DHT22;6277;49.824;9.562;2023-04-10T10:28:13;16.70;55.70
12426;DHT22;6277;49.824;9.562;2023-04-10T10:30:39;16.80;55.30
12426;DHT22;6277;49.824;9.562;2023-04-10T10:33:06;16.90;55.60
12426;DHT22;6277;49.824;9.562;2023-04-10T10:35:35;17.00;55.50
12426;DHT22;6277;49.824;9.562;2023-04-10T10:38:02;17.10;54.80
12426;DHT22;6277;49.824;9.562;2023-04-10T10:40:37;17.20;55.40
12426;DHT22;6277;49.824;9.562;2023-04-10T10:46:08;17.50;53.90
12426;DHT22;6277;49.824;9.562;2023-04-10T10:48:34;17.70;54.50
12426;DHT22;6277;49.824;9.562;2023-04-10T10:51:00;17.80;55.10
12426;DHT22;6277;49.824;9.562;2023-04-10T10:53:36;17.90;54.50
12426;DHT22;6277;49.824;9.562;2023-04-10T10:58:50;18.20;53.50
12426;DHT22;6277;49.824;9.562;2023-04-10T11:01:17;18.30;54.20
12426;DHT22;6277;49.824;9.562;2023-04-10T11:03:43;18.40;54.00
12426;DHT22;6277;49.824;9.562;2023-04-10T11:06:18;18.50;53.70
12426;DHT22;6277;49.824;9.562;2023-04-10T11:08:45;18.60;53.20
12426;DHT22;6277;49.824;9.562;2023-04-10T11:11:25;18.60;53.30
12426;DHT22;6277;49.824;9.562;2023-04-10T11:16:18;18.80;53.00
12426;DHT22;6277;49.824;9.562;2023-04-10T11:21:14;18.90;52.80
12426;DHT22;6277;49.824;9.562;2023-04-10T11:31:56;19.10;51.70
12426;DHT22;6277;49.824;9.562;2023-04-10T11:34:22;19.10;52.10
12426;DHT22;6277;49.824;9.562;2023-04-10T11:36:47;19.10;52.50
12426;DHT22;6277;49.824;9.562;2023-04-10T11:39:14;19.10;51.20
12426;DHT22;6277;49.824;9.562;2023-04-10T11:41:53;19.20;51.80
12426;DHT22;6277;49.824;9.562;2023-04-10T11:44:30;19.20;51.20
12426;DHT22;6277;49.824;9.562;2023-04-10T11:46:56;19.30;51.00
12426;DHT22;6277;49.824;9.562;2023-04-10T11:49:24;19.30;51.60
12426;DHT22;6277;49.824;9.562;2023-04-10T11:51:51;19.30;51.70
12426;DHT22;6277;49.824;9.562;2023-04-10T11:54:18;19.40;51.70
12426;DHT22;6277;49.824;9.562;2023-04-10T11:56:55;19.40;51.30
12426;DHT22;6277;49.824;9.562;2023-04-10T11:59:22;19.40;50.90
12426;DHT22;6277;49.824;9.562;2023-04-10T12:01:48;19.50;51.20
12426;DHT22;6277;49.824;9.562;2023-04-10T12:04:18;19.60;51.50
12426;DHT22;6277;49.824;9.562;2023-04-10T12:06:51;19.60;51.20
12426;DHT22;6277;49.824;9.562;2023-04-10T12:09:19;19.70;50.60
12426;DHT22;6277;49.824;9.562;2023-04-10T12:12:04;19.80;50.60
12426;DHT22;6277;49.824;9.562;2023-04-10T12:14:33;19.90;50.00
12426;DHT22;6277;49.824;9.562;2023-04-10T12:17:00;20.00;50.60
12426;DHT22;6277;49.824;9.562;2023-04-10T12:19:26;20.10;49.50
12426;DHT22;6277;49.824;9.562;2023-04-10T12:21:52;20.20;50.10
12426;DHT22;6277;49.824;9.562;2023-04-10T12:24:43;20.20;49.80
12426;DHT22;6277;49.824;9.562;2023-04-10T12:27:23;20.30;49.40
12426;DHT22;6277;49.824;9.562;2023-04-10T12:29:54;20.40;49.20
12426;DHT22;6277;49.824;9.562;2023-04-10T12:32:21;20.40;49.80
12426;DHT22;6277;49.824;9.562;2023-04-10T12:34:57;20.50;49.80
12426;DHT22;6277;49.824;9.562;2023-04-10T12:37:24;20.70;49.10
12426;DHT22;6277;49.824;9.562;2023-04-10T12:39:50;20.70;49.40
12426;DHT22;6277;49.824;9.562;2023-04-10T12:42:19;20.80;49.30
12426;DHT22;6277;49.824;9.562;2023-04-10T12:44:54;20.90;49.10
12426;DHT22;6277;49.824;9.562;2023-04-10T12:47:20;21.00;48.50
12426;DHT22;6277;49.824;9.562;2023-04-10T12:50:05;21.10;49.30
12426;DHT22;6277;49.824;9.562;2023-04-10T12:52:31;21.20;48.30
12426;DHT22;6277;49.824;9.562;2023-04-10T12:55:15;21.30;48.90
12426;DHT22;6277;49.824;9.562;2023-04-10T12:57:43;21.50;47.80
12426;DHT22;6277;49.824;9.562;2023-04-10T13:00:11;21.60;48.60
12426;DHT22;6277;49.824;9.562;2023-04-10T13:02:38;21.70;48.40
12426;DHT22;6277;49.824;9.562;2023-04-10T13:05:04;21.80;48.30
12426;DHT22;6277;49.824;9.562;2023-04-10T13:07:30;22.00;48.00
12426;DHT22;6277;49.824;9.562;2023-04-10T13:09:57;22.10;48.10
12426;DHT22;6277;49.824;9.562;2023-04-10T13:12:22;22.20;47.90
12426;DHT22;6277;49.824;9.562;2023-04-10T13:14:48;22.30;47.70
12426;DHT22;6277;49.824;9.562;2023-04-10T13:17:14;22.40;47.60
12426;DHT22;6277;49.824;9.562;2023-04-10T13:19:40;22.50;47.60
12426;DHT22;6277;49.824;9.562;2023-04-10T13:22:05;22.70;47.50
12426;DHT22;6277;49.824;9.562;2023-04-10T13:24:31;22.90;47.00
12426;DHT22;6277;49.824;9.562;2023-04-10T13:26:56;22.90;46.80
12426;DHT22;6277;49.824;9.562;2023-04-10T13:29:25;23.00;46.70
12426;DHT22;6277;49.824;9.562;2023-04-10T13:31:51;23.10;46.60
12426;DHT22;6277;49.824;9.562;2023-04-10T13:34:16;23.20;46.20
12426;DHT22;6277;49.824;9.562;2023-04-10T13:36:42;23.30;46.30
12426;DHT22;6277;49.824;9.562;2023-04-10T13:39:07;23.40;45.70
12426;DHT22;6277;49.824;9.562;2023-04-10T13:41:33;23.60;45.40
12426;DHT22;6277;49.824;9.562;2023-04-10T13:43:58;23.60;45.00
12426;DHT22;6277;49.824;9.562;2023-04-10T13:46:24;23.60;44.70
12426;DHT22;6277;49.824;9.562;2023-04-10T13:48:50;23.60;44.80
12426;DHT22;6277;49.824;9.562;2023-04-10T13:51:16;23.60;44.50
12426;DHT22;6277;49.824;9.562;2023-04-10T13:53:41;23.60;44.70
12426;DHT22;6277;49.824;9.562;2023-04-10T13:56:07;23.60;44.90
12426;DHT22;6277;49.824;9.562;2023-04-10T13:58:33;23.60;45.20
12426;DHT22;6277;49.824;9.562;2023-04-10T14:00:59;23.70;44.80
12426;DHT22;6277;49.824;9.562;2023-04-10T14:03:25;23.80;45.00
12426;DHT22;6277;49.824;9.562;2023-04-10T14:05:51;23.90;45.20
12426;DHT22;6277;49.824;9.562;2023-04-10T14:08:17;24.10;44.80
12426;DHT22;6277;49.824;9.562;2023-04-10T14:10:44;24.20;44.10
12426;DHT22;6277;49.824;9.562;2023-04-10T14:13:10;24.40;44.30
12426;DHT22;6277;49.824;9.562;2023-04-10T14:15:36;24.40;44.00
12426;DHT22;6277;49.824;9.562;2023-04-10T14:18:02;24.40;43.80
12426;DHT22;6277;49.824;9.562;2023-04-10T14:20:27;24.50;43.60
12426;DHT22;6277;49.824;9.562;2023-04-10T14:22:53;24.50;43.50
12426;DHT22;6277;49.824;9.562;2023-04-10T14:25:18;24.50;43.30
12426;DHT22;6277;49.824;9.562;2023-04-10T14:27:44;24.60;43.00
12426;DHT22;6277;49.824;9.562;2023-04-10T14:30:10;24.60;42.80
12426;DHT22;6277;49.824;9.562;2023-04-10T14:32:37;24.70;42.50
12426;DHT22;6277;49.824;9.562;2023-04-10T14:35:03;24.70;42.50
12426;DHT22;6277;49.824;9.562;2023-04-10T14:37:29;24.80;42.50
12426;DHT22;6277;49.824;9.562;2023-04-10T14:39:54;24.80;42.10
12426;DHT22;6277;49.824;9.562;2023-04-10T14:42:20;24.90;42.00
12426;DHT22;6277;49.824;9.562;2023-04-10T14:44:48;24.90;42.00
12426;DHT22;6277;49.824;9.562;2023-04-10T14:47:13;24.90;41.20
12426;DHT22;6277;49.824;9.562;2023-04-10T14:49:40;24.90;41.20
12426;DHT22;6277;49.824;9.562;2023-04-10T14:52:05;24.80;41.40
12426;DHT22;6277;49.824;9.562;2023-04-10T14:54:31;24.80;41.30
12426;DHT22;6277;49.824;9.562;2023-04-10T14:56:57;24.70;41.60
12426;DHT22;6277;49.824;9.562;2023-04-10T14:59:23;24.70;41.20
12426;DHT22;6277;49.824;9.562;2023-04-10T15:01:48;24.70;41.10
12426;DHT22;6277;49.824;9.562;2023-04-10T15:04:14;24.70;41.60
12426;DHT22;6277;49.824;9.562;2023-04-10T15:06:40;24.70;40.80
12426;DHT22;6277;49.824;9.562;2023-04-10T15:09:05;24.70;41.10
12426;DHT22;6277;49.824;9.562;2023-04-10T15:11:31;24.80;40.90
12426;DHT22;6277;49.824;9.562;2023-04-10T15:13:58;24.80;40.90
12426;DHT22;6277;49.824;9.562;2023-04-10T15:16:24;24.80;40.60
12426;DHT22;6277;49.824;9.562;2023-04-10T15:18:50;24.90;40.40
12426;DHT22;6277;49.824;9.562;2023-04-10T15:21:16;24.90;40.60
12426;DHT22;6277;49.824;9.562;2023-04-10T15:23:41;24.90;40.70
12426;DHT22;6277;49.824;9.562;2023-04-10T15:26:11;25.00;40.30
12426;DHT22;6277;49.824;9.562;2023-04-10T15:28:37;25.00;39.60
12426;DHT22;6277;49.824;9.562;2023-04-10T15:31:02;25.00;39.90
12426;DHT22;6277;49.824;9.562;2023-04-10T15:33:28;25.00;39.90
12426;DHT22;6277;49.824;9.562;2023-04-10T15:35:54;25.00;39.40
12426;DHT22;6277;49.824;9.562;2023-04-10T15:38:19;25.00;39.80
12426;DHT22;6277;49.824;9.562;2023-04-10T15:40:45;24.90;39.40
12426;DHT22;6277;49.824;9.562;2023-04-10T15:43:11;24.90;39.20
12426;DHT22;6277;49.824;9.562;2023-04-10T15:45:37;24.80;39.10
12426;DHT22;6277;49.824;9.562;2023-04-10T15:48:03;24.70;38.90
12426;DHT22;6277;49.824;9.562;2023-04-10T15:50:29;24.60;38.60
12426;DHT22;6277;49.824;9.562;2023-04-10T15:52:54;24.50;38.50
12426;DHT22;6277;49.824;9.562;2023-04-10T15:55:20;24.30;38.50
12426;DHT22;6277;49.824;9.562;2023-04-10T15:57:45;24.10;38.30
12426;DHT22;6277;49.824;9.562;2023-04-10T16:00:13;23.90;38.60
12426;DHT22;6277;49.824;9.562;2023-04-10T16:02:38;23.70;38.60
12426;DHT22;6277;49.824;9.562;2023-04-10T16:05:05;23.60;38.70
12426;DHT22;6277;49.824;9.562;2023-04-10T16:07:32;23.40;38.70
12426;DHT22;6277;49.824;9.562;2023-04-10T16:09:58;23.30;38.80
12426;DHT22;6277;49.824;9.562;2023-04-10T16:12:23;23.30;38.90
12426;DHT22;6277;49.824;9.562;2023-04-10T16:14:49;23.20;38.90
12426;DHT22;6277;49.824;9.562;2023-04-10T16:17:14;23.10;39.00
12426;DHT22;6277;49.824;9.562;2023-04-10T16:19:40;23.10;39.00
12426;DHT22;6277;49.824;9.562;2023-04-10T16:22:05;23.00;39.00
12426;DHT22;6277;49.824;9.562;2023-04-10T16:24:31;23.00;39.60
12426;DHT22;6277;49.824;9.562;2023-04-10T16:26:57;22.90;38.90
12426;DHT22;6277;49.824;9.562;2023-04-10T16:29:22;22.80;39.20